createdAt,value
2023-04-15T00:02:54.075Z,100530.53
2023-04-15T00:06:57.188Z,100530.66
2023-04-15T00:11:05.662Z,100527.16
2023-04-15T00:15:10.203Z,100532.44
2023-04-15T00:19:13.156Z,100519.84
2023-04-15T00:23:15.897Z,100517.81
2023-04-15T00:27:20.401Z,100524.53
2023-04-15T00:31:23.214Z,100521.66
2023-04-15T00:35:26.510Z,100521.28
2023-04-15T00:39:29.647Z,100528.44
2023-04-15T00:43:33.715Z,100524.56
2023-04-15T00:47:38.655Z,100530.28
2023-04-15T00:51:41.480Z,100536.59
2023-04-15T00:55:44.165Z,100543.50
2023-04-15T00:59:48.233Z,100535.69
2023-04-15T01:03:51.701Z,100541.53
2023-04-15T01:07:54.513Z,100535.38
2023-04-15T01:11:58.585Z,100536.88
2023-04-15T01:16:03.202Z,100527.31
2023-04-15T01:20:10.073Z,100538.84
2023-04-15T01:24:16.714Z,100538.22
2023-04-15T01:28:21.328Z,100531.78
2023-04-15T01:32:24.315Z,100534.25
2023-04-15T01:36:28.053Z,100536.38
2023-04-15T01:40:30.796Z,100535.50
2023-04-15T01:44:35.880Z,100544.69
2023-04-15T01:48:39.025Z,100546.78
2023-04-15T01:52:42.377Z,100546.41
2023-04-15T01:56:45.137Z,100557.91
2023-04-15T02:00:49.393Z,100545.63
2023-04-15T02:04:52.169Z,100550.69
2023-04-15T02:08:54.929Z,100551.34
2023-04-15T02:12:57.714Z,100549.31
2023-04-15T02:17:08.420Z,100548.69
2023-04-15T02:21:11.711Z,100539.41
2023-04-15T02:25:14.387Z,100545.22
2023-04-15T02:29:17.062Z,100558.56
2023-04-15T02:33:22.388Z,100564.88
2023-04-15T02:37:27.286Z,100566.38
2023-04-15T02:41:31.443Z,100562.88
2023-04-15T02:45:34.788Z,100577.44
2023-04-15T02:49:40.833Z,100579.75
2023-04-15T02:53:43.839Z,100580.56
2023-04-15T02:57:46.562Z,100589.97
2023-04-15T03:01:49.650Z,100593.94
2023-04-15T03:05:54.024Z,100594.94
2023-04-15T03:09:56.936Z,100600.59
2023-04-15T03:13:59.969Z,100591.28
2023-04-15T03:18:07.966Z,100601.91
2023-04-15T03:22:12.064Z,100605.00
2023-04-15T03:26:25.586Z,100607.97
2023-04-15T03:30:28.981Z,100610.31
2023-04-15T03:34:32.083Z,100616.34
2023-04-15T03:38:36.388Z,100616.97
2023-04-15T03:42:39.070Z,100623.44
2023-04-15T03:46:42.002Z,100618.47
2023-04-15T03:50:44.727Z,100622.19
2023-04-15T03:54:48.776Z,100635.09
2023-04-15T03:58:51.466Z,100631.16
2023-04-15T04:02:54.333Z,100634.91
2023-04-15T04:06:57.137Z,100633.09
2023-04-15T04:11:01.379Z,100639.31
2023-04-15T04:15:04.212Z,100648.25
2023-04-15T04:19:06.884Z,100652.41
2023-04-15T04:23:09.920Z,100642.25
2023-04-15T04:27:13.971Z,100653.47
2023-04-15T04:31:16.960Z,100643.53
2023-04-15T04:35:19.822Z,100653.28
2023-04-15T04:39:22.511Z,100655.38
2023-04-15T04:43:26.998Z,100652.69
2023-04-15T04:47:30.307Z,100654.53
2023-04-15T04:51:33.199Z,100653.06
2023-04-15T04:55:36.943Z,100658.66
2023-04-15T04:59:41.003Z,100666.97
2023-04-15T05:03:43.884Z,100672.16
2023-04-15T05:07:47.265Z,100664.69
2023-04-15T05:11:49.950Z,100671.09
2023-04-15T05:15:54.100Z,100677.34
2023-04-15T05:19:56.763Z,100684.44
2023-04-15T05:23:59.513Z,100691.47
2023-04-15T05:28:02.150Z,100698.09
2023-04-15T05:32:06.837Z,100703.72
2023-04-15T05:36:09.820Z,100712.22
2023-04-15T05:40:13.082Z,100722.38
2023-04-15T05:44:15.838Z,100733.38
2023-04-15T05:48:19.904Z,100733.38
2023-04-15T05:52:22.631Z,100738.16
2023-04-15T05:56:26.826Z,100750.00
2023-04-15T06:00:29.579Z,100743.94
2023-04-15T06:04:33.771Z,100754.53
2023-04-15T06:08:36.453Z,100752.00
2023-04-15T06:12:39.282Z,100743.69
2023-04-15T06:16:42.462Z,100758.63
2023-04-15T06:20:46.790Z,100761.31
2023-04-15T06:24:50.483Z,100761.28
2023-04-15T06:28:53.117Z,100763.75
2023-04-15T06:32:57.298Z,100760.78
2023-04-15T06:37:02.353Z,100768.25
2023-04-15T06:41:06.371Z,100768.19
2023-04-15T06:45:10.250Z,100766.25
2023-04-15T06:49:12.977Z,100773.91
2023-04-15T06:53:17.269Z,100771.97
2023-04-15T06:57:19.993Z,100784.38
2023-04-15T07:01:23.233Z,100782.25
2023-04-15T07:05:26.532Z,100783.81
2023-04-15T07:09:30.572Z,100784.53
2023-04-15T07:13:33.715Z,100797.38
2023-04-15T07:17:37.149Z,100792.66
2023-04-15T07:21:41.784Z,100794.69
2023-04-15T07:25:46.100Z,100797.81
2023-04-15T07:29:49.327Z,100801.50
2023-04-15T07:33:52.039Z,100808.72
2023-04-15T07:37:54.846Z,100805.56
2023-04-15T07:41:59.700Z,100799.91
2023-04-15T07:46:02.358Z,100808.94
2023-04-15T07:50:05.504Z,100803.06
2023-04-15T07:54:08.191Z,100804.22
2023-04-15T07:58:12.235Z,100820.03
2023-04-15T08:02:15.466Z,100818.38
2023-04-15T08:06:18.534Z,100822.25
2023-04-15T08:10:21.438Z,100823.91
2023-04-15T08:14:25.865Z,100825.72
2023-04-15T08:18:28.613Z,100841.63
2023-04-15T08:22:31.333Z,100843.53
2023-04-15T08:26:34.070Z,100842.69
2023-04-15T08:30:38.203Z,100838.44
2023-04-15T08:34:40.926Z,100845.34
2023-04-15T08:38:43.602Z,100846.06
2023-04-15T08:42:50.301Z,100865.38
2023-04-15T08:46:56.329Z,100851.91
2023-04-15T08:50:59.753Z,100859.56
2023-04-15T08:55:04.898Z,100847.03
2023-04-15T08:59:08.350Z,100861.78
2023-04-15T09:03:12.928Z,100852.72
2023-04-15T09:07:16.321Z,100860.53
2023-04-15T09:11:20.329Z,100870.69
2023-04-15T09:15:25.652Z,100875.31
2023-04-15T09:19:30.392Z,100880.81
2023-04-15T09:23:33.637Z,100881.31
2023-04-15T09:27:37.597Z,100884.69
2023-04-15T09:31:41.082Z,100888.22
2023-04-15T09:35:58.042Z,100894.38
2023-04-15T09:40:00.960Z,100884.81
2023-04-15T09:44:03.781Z,100892.06
2023-04-15T09:48:21.805Z,100906.47
2023-04-15T09:52:26.070Z,100903.97
2023-04-15T09:56:33.586Z,100908.25
2023-04-15T10:00:36.912Z,100917.56
2023-04-15T10:04:42.470Z,100913.44
2023-04-15T10:08:48.030Z,100913.66
2023-04-15T10:12:53.068Z,100910.13
2023-04-15T10:16:59.286Z,100920.66
2023-04-15T10:21:03.046Z,100915.72
2023-04-15T10:25:08.802Z,100929.19
2023-04-15T10:29:12.540Z,100922.78
2023-04-15T10:33:17.223Z,100928.81
2023-04-15T10:37:24.637Z,100925.38
2023-04-15T10:41:31.255Z,100930.59
2023-04-15T10:45:36.671Z,100929.28
2023-04-15T10:49:50.316Z,100929.03
2023-04-15T10:53:57.557Z,100932.69
2023-04-15T10:58:03.370Z,100928.56
2023-04-15T11:02:07.834Z,100945.16
2023-04-15T11:06:11.186Z,100936.84
2023-04-15T11:10:56.283Z,100933.91
2023-04-15T11:15:00.381Z,100937.81
2023-04-15T11:19:03.568Z,100944.44
2023-04-15T11:23:14.054Z,100951.66
2023-04-15T11:27:23.357Z,100954.50
2023-04-15T11:31:29.266Z,100963.22
2023-04-15T11:35:33.634Z,100967.50
2023-04-15T11:39:38.367Z,100975.41
2023-04-15T11:43:41.418Z,100964.66
2023-04-15T11:47:45.527Z,100976.34
2023-04-15T11:51:48.242Z,100974.47
2023-04-15T11:55:52.801Z,100975.28
2023-04-15T11:59:56.181Z,100975.53
2023-04-15T12:04:01.551Z,100978.47
2023-04-15T12:08:04.595Z,100983.69
2023-04-15T12:12:07.347Z,100992.56
2023-04-15T12:16:10.094Z,100998.50
2023-04-15T12:20:14.214Z,101002.25
2023-04-15T12:24:20.944Z,101013.75
2023-04-15T12:28:23.726Z,101017.53
2023-04-15T12:32:27.281Z,101017.41
2023-04-15T12:36:36.322Z,101023.94
2023-04-15T12:40:39.062Z,101043.22
2023-04-15T12:44:43.059Z,101047.81
2023-04-15T12:48:45.781Z,101047.00
2023-04-15T12:52:50.181Z,101042.84
2023-04-15T12:56:53.023Z,101055.84
2023-04-15T13:00:57.192Z,101045.19
2023-04-15T13:04:59.902Z,101056.81
2023-04-15T13:09:05.841Z,101050.75
2023-04-15T13:13:09.492Z,101053.72
2023-04-15T13:17:12.188Z,101058.78
2023-04-15T13:21:14.890Z,101059.88
2023-04-15T13:25:18.996Z,101064.97
2023-04-15T13:29:24.804Z,101067.78
2023-04-15T13:33:27.659Z,101068.38
2023-04-15T13:37:31.871Z,101075.09
2023-04-15T13:41:37.467Z,101079.09
2023-04-15T13:45:40.402Z,101080.72
2023-04-15T13:49:43.188Z,101088.56
2023-04-15T13:53:45.870Z,101102.91
2023-04-15T13:57:50.473Z,101111.78
2023-04-15T14:01:53.237Z,101112.25
2023-04-15T14:05:56.990Z,101110.53
2023-04-15T14:09:59.817Z,101120.41
2023-04-15T14:14:04.154Z,101124.25
2023-04-15T14:18:07.463Z,101134.97
2023-04-15T14:22:10.196Z,101129.22
2023-04-15T14:26:19.625Z,101125.75
2023-04-15T14:30:23.677Z,101130.69
2023-04-15T14:34:27.445Z,101128.94
2023-04-15T14:38:30.243Z,101131.91
2023-04-15T14:42:34.071Z,101141.16
2023-04-15T14:46:38.351Z,101148.25
2023-04-15T14:50:41.441Z,101154.72
2023-04-15T14:54:44.114Z,101151.50
2023-04-15T14:58:46.915Z,101160.47
2023-04-15T15:02:51.098Z,101167.03
2023-04-15T15:06:53.866Z,101171.53
2023-04-15T15:10:56.557Z,101172.84
2023-04-15T15:14:59.240Z,101180.16
2023-04-15T15:19:03.562Z,101177.03
2023-04-15T15:23:06.482Z,101182.69
2023-04-15T15:27:09.208Z,101192.72
2023-04-15T15:31:11.993Z,101194.63
2023-04-15T15:35:16.316Z,101205.31
2023-04-15T15:39:18.994Z,101208.69
2023-04-15T15:43:21.734Z,101215.44
2023-04-15T15:47:26.542Z,101223.03
2023-04-15T15:51:30.863Z,101212.28
2023-04-15T15:55:33.867Z,101223.19
2023-04-15T15:59:41.035Z,101230.84
2023-04-15T16:03:43.937Z,101234.06
2023-04-15T16:07:48.142Z,101232.44
2023-04-15T16:11:50.810Z,101249.09
2023-04-15T16:15:53.532Z,101246.81
2023-04-15T16:20:00.614Z,101250.56
2023-04-15T16:24:05.512Z,101249.72
2023-04-15T16:32:11.997Z,101260.13
2023-04-15T16:36:14.738Z,101268.91
2023-04-15T16:40:18.857Z,101270.22
2023-04-15T16:44:21.609Z,101270.22
2023-04-15T16:48:24.308Z,101281.88
2023-04-15T16:52:26.986Z,101288.81
2023-04-15T16:56:31.538Z,101290.28
2023-04-15T17:00:36.564Z,101286.72
2023-04-15T17:04:39.478Z,101298.81
2023-04-15T17:08:42.439Z,101305.50
2023-04-15T17:12:46.501Z,101301.75
2023-04-15T17:16:49.214Z,101306.56
2023-04-15T17:20:51.936Z,101313.66
2023-04-15T17:24:54.670Z,101321.56
2023-04-15T17:28:58.794Z,101325.97
2023-04-15T17:33:01.842Z,101331.41
2023-04-15T17:37:04.622Z,101325.13
2023-04-15T17:41:08.334Z,101339.13
2023-04-15T17:45:12.767Z,101341.22
2023-04-15T17:49:15.506Z,101348.13
2023-04-15T17:53:18.247Z,101353.56
2023-04-15T17:57:21.006Z,101352.09
2023-04-15T18:01:25.076Z,101347.72
2023-04-15T18:05:27.826Z,101358.97
2023-04-15T18:09:31.837Z,101365.25
2023-04-15T18:13:34.535Z,101374.44
2023-04-15T18:17:38.676Z,101369.41
2023-04-15T18:21:41.522Z,101379.63
2023-04-15T18:25:45.056Z,101390.91
2023-04-15T18:29:47.790Z,101398.63
2023-04-15T18:33:52.250Z,101402.59
2023-04-15T18:37:54.930Z,101414.25
2023-04-15T18:41:57.698Z,101424.06
2023-04-15T18:46:01.848Z,101434.69
2023-04-15T18:50:07.371Z,101431.16
2023-04-15T18:54:10.112Z,101443.25
2023-04-15T18:58:12.789Z,101446.59
2023-04-15T19:02:15.492Z,101464.72
2023-04-15T19:06:19.525Z,101464.28
2023-04-15T19:10:23.158Z,101460.75
2023-04-15T19:14:25.831Z,101475.56
2023-04-15T19:18:28.499Z,101469.53
2023-04-15T19:22:32.723Z,101484.53
2023-04-15T19:26:36.592Z,101481.38
2023-04-15T19:30:39.344Z,101489.34
2023-04-15T19:34:42.116Z,101489.72
2023-04-15T19:38:46.196Z,101508.94
2023-04-15T19:42:48.910Z,101511.84
2023-04-15T19:46:53.537Z,101509.97
2023-04-15T19:50:57.602Z,101520.19
2023-04-15T19:55:01.595Z,101510.38
2023-04-15T19:59:04.560Z,101521.44
2023-04-15T20:03:07.662Z,101509.53
2023-04-15T20:07:10.819Z,101511.19
2023-04-15T20:11:15.338Z,101522.03
2023-04-15T20:15:18.288Z,101513.50
2023-04-15T20:19:20.966Z,101513.66
2023-04-15T20:23:23.693Z,101516.78
2023-04-15T20:27:27.803Z,101512.84
2023-04-15T20:31:30.806Z,101518.69
2023-04-15T20:35:33.617Z,101519.53
2023-04-15T20:39:36.393Z,101517.41
2023-04-15T20:43:40.433Z,101512.41
2023-04-15T20:47:43.219Z,101516.59
2023-04-15T20:51:46.020Z,101511.16
2023-04-15T20:55:49.103Z,101521.78
2023-04-15T20:59:53.165Z,101522.66
2023-04-15T21:03:56.605Z,101538.91
2023-04-15T21:07:59.410Z,101542.63
2023-04-15T21:12:02.542Z,101546.00
2023-04-15T21:16:06.898Z,101533.06
2023-04-15T21:20:10.519Z,101541.19
2023-04-15T21:24:13.254Z,101536.63
2023-04-15T21:28:16.165Z,101549.13
2023-04-15T21:32:20.600Z,101543.53
2023-04-15T21:36:23.439Z,101547.91
2023-04-15T21:40:26.142Z,101547.47
2023-04-15T21:44:28.814Z,101550.59
2023-04-15T21:48:32.892Z,101566.44
2023-04-15T21:52:35.615Z,101569.38
2023-04-15T21:56:38.791Z,101577.09
2023-04-15T22:00:41.451Z,101581.88
2023-04-15T22:04:45.559Z,101584.81
2023-04-15T22:08:56.165Z,101581.88
2023-04-15T22:13:02.897Z,101589.19
2023-04-15T22:17:05.600Z,101595.22
2023-04-15T22:21:09.654Z,101580.22
2023-04-15T22:25:12.474Z,101586.91
2023-04-15T22:29:15.166Z,101577.94
2023-04-15T22:33:17.859Z,101583.56
2023-04-15T22:37:21.918Z,101586.28
2023-04-15T22:41:24.549Z,101593.16
2023-04-15T22:45:27.289Z,101599.00
2023-04-15T22:49:30.009Z,101595.88
2023-04-15T22:53:34.130Z,101599.63
2023-04-15T22:57:36.820Z,101608.78
2023-04-15T23:01:39.704Z,101617.75
2023-04-15T23:05:44.956Z,101616.94
2023-04-15T23:09:48.993Z,101615.25
2023-04-15T23:13:52.985Z,101610.69
2023-04-15T23:17:55.704Z,101614.88
2023-04-15T23:21:58.417Z,101623.19
2023-04-15T23:26:03.935Z,101623.81
2023-04-15T23:30:07.976Z,101629.22
2023-04-15T23:34:10.791Z,101626.31
2023-04-15T23:38:13.468Z,101633.84
2023-04-15T23:42:17.540Z,101630.06
2023-04-15T23:46:20.326Z,101634.91
2023-04-15T23:50:23.024Z,101633.22
2023-04-15T23:54:25.765Z,101616.94
2023-04-15T23:58:29.789Z,101617.38
